sensor_id;sensor_type;location;lat;lon;timestamp;P1;durP1;ratioP1;P2;durP2;ratioP2
74926;SDS011;63488;48.092;-1.640;2024-01-10T00:02:11;20.10;;;14.77;;
74926;SDS011;63488;48.092;-1.640;2024-01-10T00:04:36;20.52;;;15.23;;
74926;SDS011;63488;48.092;-1.640;2024-01-10T00:07:01;19.90;;;14.68;;
74926;SDS011;63488;48.092;-1.640;2024-01-10T00:09:27;19.75;;;14.85;;
74926;SDS011;63488;48.092;-1.640;2024-01-10T00:11:52;20.20;;;15.43;;
74926;SDS011;63488;48.092;-1.640;2024-01-10T00:14:17;22.77;;;15.95;;
74926;SDS011;63488;48.092;-1.640;2024-01-10T00:16:43;20.30;;;14.98;;
74926;SDS011;63488;48.092;-1.640;2024-01-10T00:19:08;20.20;;;15.10;;
74926;SDS011;63488;48.092;-1.640;2024-01-10T00:21:33;22.65;;;15.90;;
74926;SDS011;63488;48.092;-1.640;2024-01-10T00:24:00;21.80;;;15.38;;
74926;SDS011;63488;48.092;-1.640;2024-01-10T00:26:25;24.08;;;16.95;;
74926;SDS011;63488;48.092;-1.640;2024-01-10T00:28:51;20.20;;;15.23;;
74926;SDS011;63488;48.092;-1.640;2024-01-10T00:31:16;23.65;;;16.67;;
74926;SDS011;63488;48.092;-1.640;2024-01-10T00:33:41;22.85;;;16.85;;
74926;SDS011;63488;48.092;-1.640;2024-01-10T00:36:07;25.52;;;17.88;;
74926;SDS011;63488;48.092;-1.640;2024-01-10T00:38:32;26.17;;;18.27;;
74926;SDS011;63488;48.092;-1.640;2024-01-10T00:40:58;25.10;;;17.70;;
74926;SDS011;63488;48.092;-1.640;2024-01-10T00:43:23;28.05;;;18.63;;
74926;SDS011;63488;48.092;-1.640;2024-01-10T00:45:49;24.98;;;17.63;;
74926;SDS011;63488;48.092;-1.640;2024-01-10T00:48:14;26.52;;;18.10;;
74926;SDS011;63488;48.092;-1.640;2024-01-10T00:50:39;24.90;;;18.05;;
74926;SDS011;63488;48.092;-1.640;2024-01-10T00:53:05;26.02;;;17.60;;
74926;SDS011;63488;48.092;-1.640;2024-01-10T00:55:30;25.98;;;17.95;;
74926;SDS011;63488;48.092;-1.640;2024-01-10T00:57:55;24.33;;;16.95;;
74926;SDS011;63488;48.092;-1.640;2024-01-10T01:00:21;26.23;;;17.77;;
74926;SDS011;63488;48.092;-1.640;2024-01-10T01:02:46;25.52;;;17.33;;
74926;SDS011;63488;48.092;-1.640;2024-01-10T01:05:11;23.25;;;17.13;;
74926;SDS011;63488;48.092;-1.640;2024-01-10T01:07:37;27.17;;;17.45;;
74926;SDS011;63488;48.092;-1.640;2024-01-10T01:10:02;26.08;;;16.80;;
74926;SDS011;63488;48.092;-1.640;2024-01-10T01:12:28;24.13;;;17.42;;
74926;SDS011;63488;48.092;-1.640;2024-01-10T01:14:53;26.45;;;18.17;;
74926;SDS011;63488;48.092;-1.640;2024-01-10T01:17:18;25.67;;;19.45;;
74926;SDS011;63488;48.092;-1.640;2024-01-10T01:19:44;24.48;;;17.15;;
74926;SDS011;63488;48.092;-1.640;2024-01-10T01:22:09;24.73;;;17.85;;
74926;SDS011;63488;48.092;-1.640;2024-01-10T01:24:34;25.25;;;17.00;;
74926;SDS011;63488;48.092;-1.640;2024-01-10T01:27:00;24.08;;;16.30;;
74926;SDS011;63488;48.092;-1.640;2024-01-10T01:29:25;23.00;;;15.93;;
74926;SDS011;63488;48.092;-1.640;2024-01-10T01:31:50;22.25;;;15.73;;
74926;SDS011;63488;48.092;-1.640;2024-01-10T01:34:17;22.70;;;16.60;;
74926;SDS011;63488;48.092;-1.640;2024-01-10T01:36:42;25.38;;;16.67;;
74926;SDS011;63488;48.092;-1.640;2024-01-10T01:39:08;25.70;;;18.08;;
74926;SDS011;63488;48.092;-1.640;2024-01-10T01:41:33;24.65;;;17.40;;
74926;SDS011;63488;48.092;-1.640;2024-01-10T01:43:58;24.88;;;17.58;;
74926;SDS011;63488;48.092;-1.640;2024-01-10T01:46:24;26.55;;;17.27;;
74926;SDS011;63488;48.092;-1.640;2024-01-10T01:48:49;24.27;;;17.40;;
74926;SDS011;63488;48.092;-1.640;2024-01-10T01:51:15;23.42;;;16.17;;
74926;SDS011;63488;48.092;-1.640;2024-01-10T01:53:41;25.20;;;17.10;;
74926;SDS011;63488;48.092;-1.640;2024-01-10T01:56:07;26.95;;;17.83;;
74926;SDS011;63488;48.092;-1.640;2024-01-10T01:58:33;26.52;;;17.88;;
74926;SDS011;63488;48.092;-1.640;2024-01-10T02:00:59;27.33;;;17.48;;
74926;SDS011;63488;48.092;-1.640;2024-01-10T02:03:25;27.85;;;19.10;;
74926;SDS011;63488;48.092;-1.640;2024-01-10T02:05:51;24.10;;;16.95;;
74926;SDS011;63488;48.092;-1.640;2024-01-10T02:08:17;28.48;;;18.40;;
74926;SDS011;63488;48.092;-1.640;2024-01-10T02:10:42;29.05;;;19.55;;
74926;SDS011;63488;48.092;-1.640;2024-01-10T02:13:08;28.08;;;19.08;;
74926;SDS011;63488;48.092;-1.640;2024-01-10T02:15:35;29.80;;;19.40;;
74926;SDS011;63488;48.092;-1.640;2024-01-10T02:18:00;28.02;;;18.45;;
74926;SDS011;63488;48.092;-1.640;2024-01-10T02:20:26;26.40;;;17.20;;
74926;SDS011;63488;48.092;-1.640;2024-01-10T02:22:51;28.38;;;19.00;;
74926;SDS011;63488;48.092;-1.640;2024-01-10T02:25:17;27.50;;;18.70;;
74926;SDS011;63488;48.092;-1.640;2024-01-10T02:27:42;29.05;;;19.33;;
74926;SDS011;63488;48.092;-1.640;2024-01-10T02:30:08;30.33;;;19.23;;
74926;SDS011;63488;48.092;-1.640;2024-01-10T02:32:34;27.70;;;19.25;;
74926;SDS011;63488;48.092;-1.640;2024-01-10T02:34:59;28.58;;;19.85;;
74926;SDS011;63488;48.092;-1.640;2024-01-10T02:37:25;32.33;;;20.05;;
74926;SDS011;63488;48.092;-1.640;2024-01-10T02:39:50;29.02;;;20.13;;
74926;SDS011;63488;48.092;-1.640;2024-01-10T02:42:16;28.98;;;18.35;;
74926;SDS011;63488;48.092;-1.640;2024-01-10T02:44:41;29.15;;;19.77;;
74926;SDS011;63488;48.092;-1.640;2024-01-10T02:47:07;27.23;;;20.02;;
74926;SDS011;63488;48.092;-1.640;2024-01-10T02:49:32;31.13;;;19.95;;
74926;SDS011;63488;48.092;-1.640;2024-01-10T02:51:58;29.63;;;19.50;;
74926;SDS011;63488;48.092;-1.640;2024-01-10T02:54:23;27.92;;;19.33;;
74926;SDS011;63488;48.092;-1.640;2024-01-10T02:56:48;29.42;;;20.50;;
74926;SDS011;63488;48.092;-1.640;2024-01-10T02:59:14;28.38;;;19.40;;
74926;SDS011;63488;48.092;-1.640;2024-01-10T03:01:39;28.48;;;18.77;;
74926;SDS011;63488;48.092;-1.640;2024-01-10T03:04:04;28.67;;;19.85;;
74926;SDS011;63488;48.092;-1.640;2024-01-10T03:06:29;25.00;;;18.67;;
74926;SDS011;63488;48.092;-1.640;2024-01-10T03:08:55;27.27;;;18.80;;
74926;SDS011;63488;48.092;-1.640;2024-01-10T03:11:20;26.70;;;19.38;;
74926;SDS011;63488;48.092;-1.640;2024-01-10T03:13:46;30.10;;;20.35;;
74926;SDS011;63488;48.092;-1.640;2024-01-10T03:16:11;28.02;;;20.60;;
74926;SDS011;63488;48.092;-1.640;2024-01-10T03:18:37;29.83;;;19.95;;
74926;SDS011;63488;48.092;-1.640;2024-01-10T03:21:02;31.48;;;19.80;;
74926;SDS011;63488;48.092;-1.640;2024-01-10T03:23:27;28.10;;;18.45;;
74926;SDS011;63488;48.092;-1.640;2024-01-10T03:25:53;25.33;;;19.52;;
74926;SDS011;63488;48.092;-1.640;2024-01-10T03:28:18;28.35;;;19.10;;
74926;SDS011;63488;48.092;-1.640;2024-01-10T03:30:44;26.70;;;19.08;;
74926;SDS011;63488;48.092;-1.640;2024-01-10T03:33:09;28.88;;;19.95;;
74926;SDS011;63488;48.092;-1.640;2024-01-10T03:35:35;28.27;;;19.60;;
74926;SDS011;63488;48.092;-1.640;2024-01-10T03:38:00;28.58;;;19.17;;
74926;SDS011;63488;48.092;-1.640;2024-01-10T03:40:25;26.40;;;18.77;;
74926;SDS011;63488;48.092;-1.640;2024-01-10T03:42:50;29.60;;;19.73;;
74926;SDS011;63488;48.092;-1.640;2024-01-10T03:45:17;25.15;;;18.80;;
74926;SDS011;63488;48.092;-1.640;2024-01-10T03:47:44;24.60;;;18.52;;
74926;SDS011;63488;48.092;-1.640;2024-01-10T03:50:09;25.23;;;18.23;;
74926;SDS011;63488;48.092;-1.640;2024-01-10T03:52:35;25.33;;;18.67;;
74926;SDS011;63488;48.092;-1.640;2024-01-10T03:55:00;25.05;;;17.90;;
74926;SDS011;63488;48.092;-1.640;2024-01-10T03:57:25;25.52;;;18.70;;
74926;SDS011;63488;48.092;-1.640;2024-01-10T03:59:51;22.95;;;17.67;;
74926;SDS011;63488;48.092;-1.640;2024-01-10T04:02:16;25.52;;;18.40;;
74926;SDS011;63488;48.092;-1.640;2024-01-10T04:04:42;23.17;;;17.48;;
74926;SDS011;63488;48.092;-1.640;2024-01-10T04:07:07;22.67;;;18.30;;
74926;SDS011;63488;48.092;-1.640;2024-01-10T04:09:33;23.17;;;18.00;;
74926;SDS011;63488;48.092;-1.640;2024-01-10T04:11:58;23.02;;;18.25;;
74926;SDS011;63488;48.092;-1.640;2024-01-10T04:14:24;21.70;;;16.83;;
74926;SDS011;63488;48.092;-1.640;2024-01-10T04:16:49;25.13;;;18.05;;
74926;SDS011;63488;48.092;-1.640;2024-01-10T04:19:14;22.85;;;16.45;;
74926;SDS011;63488;48.092;-1.640;2024-01-10T04:21:40;23.00;;;17.15;;
74926;SDS011;63488;48.092;-1.640;2024-01-10T04:24:05;21.50;;;16.75;;
74926;SDS011;63488;48.092;-1.640;2024-01-10T04:26:31;20.95;;;16.23;;
74926;SDS011;63488;48.092;-1.640;2024-01-10T04:28:57;22.70;;;16.25;;
74926;SDS011;63488;48.092;-1.640;2024-01-10T04:31:22;21.05;;;17.00;;
74926;SDS011;63488;48.092;-1.640;2024-01-10T04:33:48;21.92;;;17.42;;
74926;SDS011;63488;48.092;-1.640;2024-01-10T04:36:14;23.95;;;17.13;;
74926;SDS011;63488;48.092;-1.640;2024-01-10T04:38:39;22.70;;;16.80;;
74926;SDS011;63488;48.092;-1.640;2024-01-10T04:41:04;22.25;;;16.25;;
74926;SDS011;63488;48.092;-1.640;2024-01-10T04:43:30;21.38;;;15.75;;
74926;SDS011;63488;48.092;-1.640;2024-01-10T04:45:55;22.75;;;16.30;;
74926;SDS011;63488;48.092;-1.640;2024-01-10T04:48:20;20.13;;;15.15;;
74926;SDS011;63488;48.092;-1.640;2024-01-10T04:50:46;21.42;;;15.73;;
74926;SDS011;63488;48.092;-1.640;2024-01-10T04:53:11;21.63;;;15.48;;
74926;SDS011;63488;48.092;-1.640;2024-01-10T04:55:36;20.90;;;15.80;;
74926;SDS011;63488;48.092;-1.640;2024-01-10T04:58:02;21.33;;;16.02;;
74926;SDS011;63488;48.092;-1.640;2024-01-10T05:00:28;20.63;;;16.35;;
74926;SDS011;63488;48.092;-1.640;2024-01-10T05:02:53;21.75;;;16.08;;
74926;SDS011;63488;48.092;-1.640;2024-01-10T05:05:18;19.73;;;15.65;;
74926;SDS011;63488;48.092;-1.640;2024-01-10T05:07:48;21.30;;;16.15;;
74926;SDS011;63488;48.092;-1.640;2024-01-10T05:10:14;20.13;;;15.80;;
74926;SDS011;63488;48.092;-1.640;2024-01-10T05:12:39;20.60;;;15.73;;
74926;SDS011;63488;48.092;-1.640;2024-01-10T05:15:04;19.65;;;15.40;;
74926;SDS011;63488;48.092;-1.640;2024-01-10T05:17:30;20.98;;;15.30;;
74926;SDS011;63488;48.092;-1.640;2024-01-10T05:19:56;20.38;;;15.25;;
74926;SDS011;63488;48.092;-1.640;2024-01-10T05:22:21;20.92;;;15.57;;
74926;SDS011;63488;48.092;-1.640;2024-01-10T05:24:47;21.23;;;15.90;;
74926;SDS011;63488;48.092;-1.640;2024-01-10T05:27:12;21.17;;;16.35;;
74926;SDS011;63488;48.092;-1.640;2024-01-10T05:29:38;20.00;;;15.65;;
74926;SDS011;63488;48.092;-1.640;2024-01-10T05:32:03;21.55;;;15.75;;
74926;SDS011;63488;48.092;-1.640;2024-01-10T05:34:28;19.98;;;16.00;;
74926;SDS011;63488;48.092;-1.640;2024-01-10T05:36:54;21.60;;;15.93;;
74926;SDS011;63488;48.092;-1.640;2024-01-10T05:39:19;21.27;;;15.55;;
74926;SDS011;63488;48.092;-1.640;2024-01-10T05:41:45;18.90;;;15.02;;
74926;SDS011;63488;48.092;-1.640;2024-01-10T05:44:11;20.30;;;15.32;;
74926;SDS011;63488;48.092;-1.640;2024-01-10T05:46:36;21.17;;;15.73;;
74926;SDS011;63488;48.092;-1.640;2024-01-10T05:49:02;19.35;;;15.23;;
74926;SDS011;63488;48.092;-1.640;2024-01-10T05:51:29;20.08;;;15.35;;
74926;SDS011;63488;48.092;-1.640;2024-01-10T05:53:54;21.20;;;16.05;;
74926;SDS011;63488;48.092;-1.640;2024-01-10T05:56:20;22.25;;;15.98;;
74926;SDS011;63488;48.092;-1.640;2024-01-10T05:58:45;19.33;;;15.10;;
74926;SDS011;63488;48.092;-1.640;2024-01-10T06:01:10;20.70;;;16.13;;
74926;SDS011;63488;48.092;-1.640;2024-01-10T06:03:36;20.92;;;16.05;;
74926;SDS011;63488;48.092;-1.640;2024-01-10T06:06:01;20.92;;;15.80;;
74926;SDS011;63488;48.092;-1.640;2024-01-10T06:08:27;20.45;;;15.60;;
74926;SDS011;63488;48.092;-1.640;2024-01-10T06:10:54;21.33;;;15.70;;
74926;SDS011;63488;48.092;-1.640;2024-01-10T06:13:21;23.08;;;16.20;;
74926;SDS011;63488;48.092;-1.640;2024-01-10T06:15:48;19.50;;;15.35;;
74926;SDS011;63488;48.092;-1.640;2024-01-10T06:18:16;22.33;;;15.68;;
74926;SDS011;63488;48.092;-1.640;2024-01-10T06:20:43;22.23;;;15.50;;
74926;SDS011;63488;48.092;-1.640;2024-01-10T06:23:10;20.20;;;15.10;;
74926;SDS011;63488;48.092;-1.640;2024-01-10T06:25:37;20.63;;;15.27;;
74926;SDS011;63488;48.092;-1.640;2024-01-10T06:28:04;21.52;;;16.83;;
74926;SDS011;63488;48.092;-1.640;2024-01-10T06:30:29;23.17;;;16.38;;
74926;SDS011;63488;48.092;-1.640;2024-01-10T06:32:55;21.33;;;16.38;;
74926;SDS011;63488;48.092;-1.640;2024-01-10T06:35:20;21.85;;;16.23;;
74926;SDS011;63488;48.092;-1.640;2024-01-10T06:37:45;20.35;;;15.68;;
74926;SDS011;63488;48.092;-1.640;2024-01-10T06:40:11;21.23;;;15.65;;
74926;SDS011;63488;48.092;-1.640;2024-01-10T06:42:37;20.88;;;15.60;;
74926;SDS011;63488;48.092;-1.640;2024-01-10T06:45:04;19.40;;;15.00;;
74926;SDS011;63488;48.092;-1.640;2024-01-10T06:47:32;22.92;;;16.48;;
74926;SDS011;63488;48.092;-1.640;2024-01-10T06:49:58;19.98;;;15.75;;
74926;SDS011;63488;48.092;-1.640;2024-01-10T06:52:23;21.60;;;16.02;;
74926;SDS011;63488;48.092;-1.640;2024-01-10T06:54:48;23.70;;;16.33;;
74926;SDS011;63488;48.092;-1.640;2024-01-10T06:57:14;21.80;;;15.82;;
74926;SDS011;63488;48.092;-1.640;2024-01-10T06:59:39;21.33;;;15.63;;
74926;SDS011;63488;48.092;-1.640;2024-01-10T07:02:05;22.67;;;14.48;;
74926;SDS011;63488;48.092;-1.640;2024-01-10T07:04:30;22.45;;;16.40;;
74926;SDS011;63488;48.092;-1.640;2024-01-10T07:06:57;21.05;;;16.10;;
74926;SDS011;63488;48.092;-1.640;2024-01-10T07:09:22;21.80;;;16.25;;
74926;SDS011;63488;48.092;-1.640;2024-01-10T07:11:48;19.88;;;16.50;;
74926;SDS011;63488;48.092;-1.640;2024-01-10T07:14:13;20.85;;;15.88;;
74926;SDS011;63488;48.092;-1.640;2024-01-10T07:16:39;20.33;;;16.10;;
74926;SDS011;63488;48.092;-1.640;2024-01-10T07:19:07;20.30;;;15.85;;
74926;SDS011;63488;48.092;-1.640;2024-01-10T07:21:32;19.05;;;16.10;;
74926;SDS011;63488;48.092;-1.640;2024-01-10T07:23:58;21.10;;;16.38;;
74926;SDS011;63488;48.092;-1.640;2024-01-10T07:26:24;20.40;;;16.08;;
74926;SDS011;63488;48.092;-1.640;2024-01-10T07:28:50;21.30;;;16.52;;
74926;SDS011;63488;48.092;-1.640;2024-01-10T07:31:15;22.00;;;16.35;;
74926;SDS011;63488;48.092;-1.640;2024-01-10T07:33:41;24.15;;;17.10;;
74926;SDS011;63488;48.092;-1.640;2024-01-10T07:36:06;21.38;;;17.10;;
74926;SDS011;63488;48.092;-1.640;2024-01-10T07:38:32;21.05;;;16.33;;
74926;SDS011;63488;48.092;-1.640;2024-01-10T07:40:58;22.35;;;17.13;;
74926;SDS011;63488;48.092;-1.640;2024-01-10T07:43:24;22.30;;;16.00;;
74926;SDS011;63488;48.092;-1.640;2024-01-10T07:45:49;22.15;;;16.20;;
74926;SDS011;63488;48.092;-1.640;2024-01-10T07:48:15;24.27;;;17.48;;
74926;SDS011;63488;48.092;-1.640;2024-01-10T07:50:40;21.15;;;16.95;;
74926;SDS011;63488;48.092;-1.640;2024-01-10T07:53:05;22.45;;;16.67;;
74926;SDS011;63488;48.092;-1.640;2024-01-10T07:55:30;20.58;;;16.13;;
74926;SDS011;63488;48.092;-1.640;2024-01-10T07:57:56;22.17;;;16.65;;
74926;SDS011;63488;48.092;-1.640;2024-01-10T08:00:21;23.83;;;16.35;;
74926;SDS011;63488;48.092;-1.640;2024-01-10T08:02:47;21.90;;;17.05;;
74926;SDS011;63488;48.092;-1.640;2024-01-10T08:05:14;24.77;;;17.30;;
74926;SDS011;63488;48.092;-1.640;2024-01-10T08:07:40;22.50;;;16.73;;
74926;SDS011;63488;48.092;-1.640;2024-01-10T08:10:09;23.70;;;16.98;;
74926;SDS011;63488;48.092;-1.640;2024-01-10T08:12:35;23.05;;;16.27;;
74926;SDS011;63488;48.092;-1.640;2024-01-10T08:15:00;24.65;;;16.85;;
74926;SDS011;63488;48.092;-1.640;2024-01-10T08:17:26;22.40;;;17.15;;
74926;SDS011;63488;48.092;-1.640;2024-01-10T08:19:52;21.90;;;17.52;;
74926;SDS011;63488;48.092;-1.640;2024-01-10T08:22:17;24.70;;;17.73;;
74926;SDS011;63488;48.092;-1.640;2024-01-10T08:24:44;22.08;;;17.02;;
74926;SDS011;63488;48.092;-1.640;2024-01-10T08:27:10;22.58;;;17.27;;
74926;SDS011;63488;48.092;-1.640;2024-01-10T08:29:35;23.42;;;16.55;;
74926;SDS011;63488;48.092;-1.640;2024-01-10T08:32:00;23.23;;;17.85;;
74926;SDS011;63488;48.092;-1.640;2024-01-10T08:34:27;22.10;;;15.95;;
74926;SDS011;63488;48.092;-1.640;2024-01-10T08:36:52;24.15;;;18.30;;
74926;SDS011;63488;48.092;-1.640;2024-01-10T08:39:18;23.35;;;17.55;;
74926;SDS011;63488;48.092;-1.640;2024-01-10T08:41:44;22.70;;;16.95;;
74926;SDS011;63488;48.092;-1.640;2024-01-10T08:44:09;24.63;;;17.83;;
74926;SDS011;63488;48.092;-1.640;2024-01-10T08:46:35;23.92;;;17.52;;
74926;SDS011;63488;48.092;-1.640;2024-01-10T08:49:01;24.38;;;17.63;;
74926;SDS011;63488;48.092;-1.640;2024-01-10T08:51:26;23.45;;;17.55;;
74926;SDS011;63488;48.092;-1.640;2024-01-10T08:53:52;22.88;;;18.02;;
74926;SDS011;63488;48.092;-1.640;2024-01-10T08:56:18;23.67;;;17.70;;
74926;SDS011;63488;48.092;-1.640;2024-01-10T08:58:44;24.13;;;18.02;;
74926;SDS011;63488;48.092;-1.640;2024-01-10T09:01:10;24.08;;;17.27;;
74926;SDS011;63488;48.092;-1.640;2024-01-10T09:03:35;22.75;;;18.05;;
74926;SDS011;63488;48.092;-1.640;2024-01-10T09:06:02;26.50;;;18.73;;
74926;SDS011;63488;48.092;-1.640;2024-01-10T09:08:29;25.45;;;17.80;;
74926;SDS011;63488;48.092;-1.640;2024-01-10T09:10:54;23.15;;;16.98;;
74926;SDS011;63488;48.092;-1.640;2024-01-10T09:13:19;25.40;;;18.95;;
74926;SDS011;63488;48.092;-1.640;2024-01-10T09:15:45;23.90;;;18.58;;
74926;SDS011;63488;48.092;-1.640;2024-01-10T09:18:10;23.40;;;18.23;;
74926;SDS011;63488;48.092;-1.640;2024-01-10T09:20:36;26.38;;;18.55;;
74926;SDS011;63488;48.092;-1.640;2024-01-10T09:23:03;26.70;;;18.17;;
74926;SDS011;63488;48.092;-1.640;2024-01-10T09:25:28;23.58;;;16.67;;
74926;SDS011;63488;48.092;-1.640;2024-01-10T09:27:56;25.25;;;17.70;;
74926;SDS011;63488;48.092;-1.640;2024-01-10T09:30:21;25.35;;;19.27;;
74926;SDS011;63488;48.092;-1.640;2024-01-10T09:32:48;30.02;;;18.73;;
74926;SDS011;63488;48.092;-1.640;2024-01-10T09:35:13;23.25;;;17.92;;
74926;SDS011;63488;48.092;-1.640;2024-01-10T09:37:39;24.50;;;18.77;;
74926;SDS011;63488;48.092;-1.640;2024-01-10T09:40:05;26.45;;;18.42;;
74926;SDS011;63488;48.092;-1.640;2024-01-10T09:42:33;24.45;;;18.25;;
74926;SDS011;63488;48.092;-1.640;2024-01-10T09:45:00;24.75;;;18.45;;
74926;SDS011;63488;48.092;-1.640;2024-01-10T09:47:26;24.25;;;18.17;;
74926;SDS011;63488;48.092;-1.640;2024-01-10T09:49:52;24.15;;;17.40;;
74926;SDS011;63488;48.092;-1.640;2024-01-10T09:52:25;25.25;;;17.98;;
74926;SDS011;63488;48.092;-1.640;2024-01-10T09:54:55;23.10;;;17.20;;
74926;SDS011;63488;48.092;-1.640;2024-01-10T09:57:26;23.13;;;18.80;;
74926;SDS011;63488;48.092;-1.640;2024-01-10T09:59:52;25.60;;;19.15;;
74926;SDS011;63488;48.092;-1.640;2024-01-10T10:02:19;26.88;;;19.17;;
74926;SDS011;63488;48.092;-1.640;2024-01-10T10:04:48;25.88;;;18.15;;
74926;SDS011;63488;48.092;-1.640;2024-01-10T10:07:16;25.20;;;18.73;;
74926;SDS011;63488;48.092;-1.640;2024-01-10T10:09:41;25.27;;;18.80;;
74926;SDS011;63488;48.092;-1.640;2024-01-10T10:12:07;23.30;;;18.55;;
74926;SDS011;63488;48.092;-1.640;2024-01-10T10:14:33;25.70;;;19.05;;
74926;SDS011;63488;48.092;-1.640;2024-01-10T10:17:13;24.52;;;18.30;;
74926;SDS011;63488;48.092;-1.640;2024-01-10T10:19:38;26.77;;;18.80;;
74926;SDS011;63488;48.092;-1.640;2024-01-10T10:22:10;23.77;;;17.92;;
74926;SDS011;63488;48.092;-1.640;2024-01-10T10:24:36;24.08;;;18.27;;
74926;SDS011;63488;48.092;-1.640;2024-01-10T10:27:07;26.55;;;19.50;;
74926;SDS011;63488;48.092;-1.640;2024-01-10T10:29:32;25.70;;;19.48;;
74926;SDS011;63488;48.092;-1.640;2024-01-10T10:31:58;25.42;;;18.95;;
74926;SDS011;63488;48.092;-1.640;2024-01-10T10:34:33;27.02;;;19.80;;
74926;SDS011;63488;48.092;-1.640;2024-01-10T10:36:59;28.20;;;19.25;;
74926;SDS011;63488;48.092;-1.640;2024-01-10T10:39:24;27.85;;;19.05;;
74926;SDS011;63488;48.092;-1.640;2024-01-10T10:41:50;25.30;;;19.00;;
74926;SDS011;63488;48.092;-1.640;2024-01-10T10:44:18;29.52;;;19.48;;
74926;SDS011;63488;48.092;-1.640;2024-01-10T10:46:45;23.77;;;17.75;;
74926;SDS011;63488;48.092;-1.640;2024-01-10T10:49:13;25.35;;;18.50;;
74926;SDS011;63488;48.092;-1.640;2024-01-10T10:51:39;26.17;;;19.27;;
74926;SDS011;63488;48.092;-1.640;2024-01-10T10:54:06;25.13;;;18.63;;
74926;SDS011;63488;48.092;-1.640;2024-01-10T10:56:33;24.67;;;18.67;;
74926;SDS011;63488;48.092;-1.640;2024-01-10T10:59:02;25.47;;;18.83;;
74926;SDS011;63488;48.092;-1.640;2024-01-10T11:01:27;25.73;;;19.15;;
74926;SDS011;63488;48.092;-1.640;2024-01-10T11:03:53;25.35;;;19.00;;
74926;SDS011;63488;48.092;-1.640;2024-01-10T11:06:20;25.90;;;18.98;;
74926;SDS011;63488;48.092;-1.640;2024-01-10T11:08:47;23.88;;;18.60;;
74926;SDS011;63488;48.092;-1.640;2024-01-10T11:11:20;26.20;;;19.80;;
74926;SDS011;63488;48.092;-1.640;2024-01-10T11:14:01;28.70;;;19.27;;
74926;SDS011;63488;48.092;-1.640;2024-01-10T11:16:35;26.45;;;19.92;;
74926;SDS011;63488;48.092;-1.640;2024-01-10T11:24:22;27.98;;;20.55;;
74926;SDS011;63488;48.092;-1.640;2024-01-10T11:26:48;28.05;;;20.30;;
74926;SDS011;63488;48.092;-1.640;2024-01-10T11:29:15;27.23;;;19.52;;
74926;SDS011;63488;48.092;-1.640;2024-01-10T11:31:40;25.02;;;19.50;;
74926;SDS011;63488;48.092;-1.640;2024-01-10T11:34:06;28.17;;;20.35;;
74926;SDS011;63488;48.092;-1.640;2024-01-10T11:36:31;27.05;;;20.58;;
74926;SDS011;63488;48.092;-1.640;2024-01-10T11:39:02;27.00;;;20.33;;
74926;SDS011;63488;48.092;-1.640;2024-01-10T11:41:32;28.55;;;20.45;;
74926;SDS011;63488;48.092;-1.640;2024-01-10T11:46:23;26.53;;;20.20;;
74926;SDS011;63488;48.092;-1.640;2024-01-10T11:48:49;26.63;;;19.80;;
74926;SDS011;63488;48.092;-1.640;2024-01-10T11:51:14;25.60;;;19.83;;
74926;SDS011;63488;48.092;-1.640;2024-01-10T11:53:41;27.75;;;20.83;;
74926;SDS011;63488;48.092;-1.640;2024-01-10T11:56:10;27.30;;;20.17;;
74926;SDS011;63488;48.092;-1.640;2024-01-10T11:58:53;24.42;;;18.98;;
74926;SDS011;63488;48.092;-1.640;2024-01-10T12:01:18;26.33;;;19.50;;
74926;SDS011;63488;48.092;-1.640;2024-01-10T12:03:44;26.17;;;19.70;;
74926;SDS011;63488;48.092;-1.640;2024-01-10T12:06:09;26.38;;;20.15;;
74926;SDS011;63488;48.092;-1.640;2024-01-10T12:08:35;25.77;;;18.70;;
74926;SDS011;63488;48.092;-1.640;2024-01-10T12:11:00;26.02;;;18.10;;
74926;SDS011;63488;48.092;-1.640;2024-01-10T12:13:26;27.42;;;19.45;;
74926;SDS011;63488;48.092;-1.640;2024-01-10T12:15:52;25.58;;;18.95;;
74926;SDS011;63488;48.092;-1.640;2024-01-10T12:18:17;25.45;;;20.15;;
74926;SDS011;63488;48.092;-1.640;2024-01-10T12:20:42;27.75;;;20.35;;
74926;SDS011;63488;48.092;-1.640;2024-01-10T12:23:10;28.20;;;20.08;;
74926;SDS011;63488;48.092;-1.640;2024-01-10T12:25:36;29.00;;;20.38;;
74926;SDS011;63488;48.092;-1.640;2024-01-10T12:28:02;27.58;;;21.10;;
74926;SDS011;63488;48.092;-1.640;2024-01-10T12:30:27;25.70;;;19.65;;
74926;SDS011;63488;48.092;-1.640;2024-01-10T12:32:53;26.75;;;20.15;;
74926;SDS011;63488;48.092;-1.640;2024-01-10T12:35:19;27.42;;;20.27;;
74926;SDS011;63488;48.092;-1.640;2024-01-10T12:37:54;27.17;;;20.10;;
74926;SDS011;63488;48.092;-1.640;2024-01-10T12:40:20;27.90;;;21.33;;
74926;SDS011;63488;48.092;-1.640;2024-01-10T12:42:46;27.13;;;19.85;;
74926;SDS011;63488;48.092;-1.640;2024-01-10T12:45:23;24.48;;;19.80;;
74926;SDS011;63488;48.092;-1.640;2024-01-10T12:47:49;26.70;;;20.83;;
74926;SDS011;63488;48.092;-1.640;2024-01-10T12:50:14;28.42;;;23.58;;
74926;SDS011;63488;48.092;-1.640;2024-01-10T12:52:40;27.98;;;20.27;;
74926;SDS011;63488;48.092;-1.640;2024-01-10T12:55:07;27.23;;;21.67;;
74926;SDS011;63488;48.092;-1.640;2024-01-10T12:57:33;26.35;;;21.50;;
74926;SDS011;63488;48.092;-1.640;2024-01-10T12:59:58;27.58;;;22.88;;
74926;SDS011;63488;48.092;-1.640;2024-01-10T13:02:23;28.17;;;22.58;;
74926;SDS011;63488;48.092;-1.640;2024-01-10T13:04:50;36.60;;;28.92;;
74926;SDS011;63488;48.092;-1.640;2024-01-10T13:07:15;28.90;;;22.60;;
74926;SDS011;63488;48.092;-1.640;2024-01-10T13:09:41;33.50;;;24.83;;
74926;SDS011;63488;48.092;-1.640;2024-01-10T13:12:06;34.30;;;24.27;;
74926;SDS011;63488;48.092;-1.640;2024-01-10T13:14:32;30.70;;;22.38;;
74926;SDS011;63488;48.092;-1.640;2024-01-10T13:16:58;34.05;;;24.52;;
74926;SDS011;63488;48.092;-1.640;2024-01-10T13:19:24;37.00;;;30.48;;
74926;SDS011;63488;48.092;-1.640;2024-01-10T13:21:49;51.00;;;44.45;;
74926;SDS011;63488;48.092;-1.640;2024-01-10T13:24:14;41.13;;;33.55;;
74926;SDS011;63488;48.092;-1.640;2024-01-10T13:26:40;45.45;;;37.50;;
74926;SDS011;63488;48.092;-1.640;2024-01-10T13:29:05;33.60;;;26.73;;
74926;SDS011;63488;48.092;-1.640;2024-01-10T13:31:30;33.80;;;25.17;;
74926;SDS011;63488;48.092;-1.640;2024-01-10T13:33:56;42.33;;;29.77;;
74926;SDS011;63488;48.092;-1.640;2024-01-10T13:36:22;36.00;;;25.73;;
74926;SDS011;63488;48.092;-1.640;2024-01-10T13:38:47;31.63;;;24.23;;
74926;SDS011;63488;48.092;-1.640;2024-01-10T13:41:13;28.83;;;19.17;;
74926;SDS011;63488;48.092;-1.640;2024-01-10T13:43:38;29.10;;;19.02;;
74926;SDS011;63488;48.092;-1.640;2024-01-10T13:46:05;29.85;;;18.60;;
74926;SDS011;63488;48.092;-1.640;2024-01-10T13:48:30;31.02;;;22.75;;
74926;SDS011;63488;48.092;-1.640;2024-01-10T13:50:56;30.65;;;22.95;;
74926;SDS011;63488;48.092;-1.640;2024-01-10T13:53:21;33.20;;;23.80;;
74926;SDS011;63488;48.092;-1.640;2024-01-10T13:55:47;30.88;;;23.95;;
74926;SDS011;63488;48.092;-1.640;2024-01-10T13:58:12;30.15;;;21.55;;
74926;SDS011;63488;48.092;-1.640;2024-01-10T14:00:37;27.65;;;22.33;;
74926;SDS011;63488;48.092;-1.640;2024-01-10T14:03:05;29.98;;;23.60;;
74926;SDS011;63488;48.092;-1.640;2024-01-10T14:05:30;29.92;;;22.02;;
74926;SDS011;63488;48.092;-1.640;2024-01-10T14:07:56;29.65;;;22.00;;
74926;SDS011;63488;48.092;-1.640;2024-01-10T14:10:21;30.65;;;21.35;;